Time;durP1;ratioP1;P1;durP2;ratioP2;P2;SDS_P1;SDS_P2;PMS_P1;PMS_P2;Temp;Humidity;BMP_temperature;BMP_pressure;BME280_temperature;BME280_humidity;BME280_pressure;Samples;Min_cycle;Max_cycle;Signal;HPM_P1;HPM_P2
2022/12/13 00:01:30;;;;;;;41.40;24.73;;;;;;;;;;4983937;28;20262;-80
2022/12/13 00:03:56;;;;;;;41.17;28.08;;;;;;;;;;4976699;28;20487;-80
2022/12/13 00:06:23;;;;;;;42.10;30.98;;;;;;;;;;5012768;28;20454;-80
2022/12/13 00:08:49;;;;;;;40.35;27.58;;;;;;;;;;4995544;28;20465;-79
2022/12/13 00:11:15;;;;;;;40.33;29.83;;;;;;;;;;4993576;28;20427;-79
2022/12/13 00:13:41;;;;;;;38.30;23.50;;;;;;;;;;4990603;28;20419;-79
2022/12/13 00:16:10;;;;;;;34.13;23.77;;;;;;;;;;5016854;28;20184;-79
2022/12/13 00:18:36;;;;;;;35.20;23.63;;;;;;;;;;5004345;28;20192;-79
2022/12/13 00:21:06;;;;;;;41.47;29.58;;;;;;;;;;4996093;28;20427;-79
2022/12/13 00:23:32;;;;;;;35.17;23.20;;;;;;;;;;4979519;28;20193;-77
2022/12/13 00:26:04;;;;;;;39.60;27.08;;;;;;;;;;4995926;28;20557;-78
2022/12/13 00:28:30;;;;;;;41.38;29.60;;;;;;;;;;4994994;28;20460;-77
2022/12/13 00:30:57;;;;;;;36.20;23.77;;;;;;;;;;4976821;28;20182;-77
2022/12/13 00:33:23;;;;;;;39.97;28.85;;;;;;;;;;4989679;28;20431;-77
2022/12/13 00:35:49;;;;;;;41.60;26.30;;;;;;;;;;4983677;28;20184;-77
2022/12/13 00:38:15;;;;;;;41.13;26.20;;;;;;;;;;4971743;28;20247;-77
2022/12/13 00:40:41;;;;;;;42.40;26.37;;;;;;;;;;5012969;28;20192;-80
2022/12/13 00:43:07;;;;;;;39.23;25.10;;;;;;;;;;5001541;28;20188;-81
2022/12/13 00:45:34;;;;;;;41.60;25.57;;;;;;;;;;4975780;28;20194;-80
2022/12/13 00:48:00;;;;;;;41.43;24.83;;;;;;;;;;5004026;28;20225;-80
2022/12/13 00:50:26;;;;;;;40.50;25.67;;;;;;;;;;5008060;28;20241;-81
2022/12/13 00:52:52;;;;;;;39.10;25.03;;;;;;;;;;4996602;28;20181;-80
2022/12/13 00:55:18;;;;;;;42.78;27.85;;;;;;;;;;5012064;28;20415;-81
2022/12/13 00:57:44;;;;;;;44.58;31.52;;;;;;;;;;4990668;28;20427;-81
2022/12/13 01:02:40;;;;;;;46.55;32.97;;;;;;;;;;5019499;28;20465;-83
2022/12/13 01:05:06;;;;;;;45.90;30.67;;;;;;;;;;4999977;28;20451;-83
2022/12/13 01:07:32;;;;;;;39.43;25.43;;;;;;;;;;5014720;28;20177;-83
2022/12/13 01:09:58;;;;;;;46.10;32.65;;;;;;;;;;5014034;28;20425;-83
2022/12/13 01:12:24;;;;;;;38.97;26.67;;;;;;;;;;4998853;28;20180;-83
2022/12/13 01:14:50;;;;;;;41.83;31.63;;;;;;;;;;4997366;28;20450;-83
2022/12/13 01:17:16;;;;;;;41.90;26.67;;;;;;;;;;4996414;28;20222;-83
2022/12/13 01:19:42;;;;;;;41.27;25.87;;;;;;;;;;4989687;28;20221;-83
2022/12/13 01:22:10;;;;;;;36.63;23.70;;;;;;;;;;5015348;28;20191;-83
2022/12/13 01:24:37;;;;;;;42.47;31.75;;;;;;;;;;5002703;28;20433;-83
2022/12/13 01:27:03;;;;;;;38.87;25.27;;;;;;;;;;5011892;28;20277;-83
2022/12/13 01:29:29;;;;;;;38.17;24.00;;;;;;;;;;5012757;28;20259;-84
2022/12/13 01:31:55;;;;;;;36.83;22.60;;;;;;;;;;4999084;28;20192;-79
2022/12/13 01:34:22;;;;;;;32.97;21.43;;;;;;;;;;4998531;28;20191;-79
2022/12/13 01:36:48;;;;;;;33.87;21.23;;;;;;;;;;5015218;28;20219;-79
2022/12/13 01:39:16;;;;;;;37.73;22.67;;;;;;;;;;5031594;28;20268;-79
2022/12/13 01:41:44;;;;;;;33.17;21.73;;;;;;;;;;5017607;28;20234;-79
2022/12/13 01:44:28;;;;;;;37.70;21.60;;;;;;;;;;5018929;28;20183;-79
2022/12/13 01:46:54;;;;;;;36.73;22.40;;;;;;;;;;5018993;28;20254;-84
2022/12/13 01:49:20;;;;;;;37.40;22.90;;;;;;;;;;5012957;28;20217;-84
2022/12/13 01:51:49;;;;;;;41.22;28.15;;;;;;;;;;5001868;28;20425;-84
2022/12/13 01:54:18;;;;;;;39.97;26.70;;;;;;;;;;5018388;28;20421;-84
2022/12/13 01:56:47;;;;;;;33.37;22.83;;;;;;;;;;5015877;28;20444;-84
2022/12/13 01:59:14;;;;;;;38.43;21.83;;;;;;;;;;5013265;28;20231;-84
2022/12/13 02:01:41;;;;;;;33.60;21.93;;;;;;;;;;5018698;28;20232;-85
2022/12/13 02:04:07;;;;;;;38.87;22.90;;;;;;;;;;5016032;28;20197;-79
2022/12/13 02:06:35;;;;;;;34.97;22.70;;;;;;;;;;5002975;28;20203;-78
2022/12/13 02:09:02;;;;;;;40.63;28.88;;;;;;;;;;5016483;28;20441;-78
2022/12/13 02:11:28;;;;;;;39.63;25.23;;;;;;;;;;5023011;28;20211;-79
2022/12/13 02:13:54;;;;;;;34.20;22.07;;;;;;;;;;5001265;28;20220;-79
2022/12/13 02:16:26;;;;;;;35.63;22.93;;;;;;;;;;5001895;28;20207;-79
2022/12/13 02:19:11;;;;;;;31.23;20.70;;;;;;;;;;5018438;28;20185;-79
2022/12/13 02:21:46;;;;;;;34.30;21.53;;;;;;;;;;5016693;28;20177;-84
2022/12/13 02:24:12;;;;;;;31.50;20.07;;;;;;;;;;5012543;28;20184;-84
2022/12/13 02:26:47;;;;;;;34.10;20.77;;;;;;;;;;5016987;28;20219;-84
2022/12/13 02:29:25;;;;;;;33.70;21.70;;;;;;;;;;5016758;28;20236;-84
2022/12/13 02:32:04;;;;;;;32.80;19.77;;;;;;;;;;5035442;28;20191;-84
2022/12/13 02:34:39;;;;;;;40.67;27.92;;;;;;;;;;5017005;28;20492;-84
2022/12/13 02:37:25;;;;;;;34.17;22.20;;;;;;;;;;5018266;28;20276;-84
2022/12/13 02:39:58;;;;;;;33.77;21.13;;;;;;;;;;5016794;28;20184;-84
2022/12/13 02:42:31;;;;;;;34.30;20.70;;;;;;;;;;5035001;28;20192;-83
2022/12/13 02:45:03;;;;;;;31.63;19.97;;;;;;;;;;5018312;28;20276;-84
2022/12/13 02:47:30;;;;;;;31.50;20.33;;;;;;;;;;5018179;28;20192;-84
2022/12/13 02:49:59;;;;;;;30.53;19.33;;;;;;;;;;5006549;28;20204;-83
2022/12/13 02:52:27;;;;;;;37.67;21.03;;;;;;;;;;5016128;28;20280;-84
2022/12/13 02:54:54;;;;;;;31.23;19.93;;;;;;;;;;5016811;28;20188;-83
2022/12/13 02:57:31;;;;;;;33.57;21.03;;;;;;;;;;5035439;28;20181;-83
2022/12/13 02:59:59;;;;;;;32.23;19.97;;;;;;;;;;5017218;28;20234;-83
2022/12/13 03:02:25;;;;;;;34.93;20.27;;;;;;;;;;5017221;28;20231;-84
2022/12/13 03:07:44;;;;;;;30.13;19.60;;;;;;;;;;5030096;28;20224;-83
2022/12/13 03:10:20;;;;;;;34.90;20.67;;;;;;;;;;5009547;28;20236;-84
2022/12/13 03:15:44;;;;;;;32.67;21.03;;;;;;;;;;5032843;28;20195;-84
2022/12/13 03:18:18;;;;;;;34.43;21.03;;;;;;;;;;5021586;28;20177;-84
2022/12/13 03:21:00;;;;;;;33.73;20.07;;;;;;;;;;5025317;28;20215;-84
2022/12/13 03:23:27;;;;;;;34.13;21.20;;;;;;;;;;5018829;28;20191;-84
2022/12/13 03:25:55;;;;;;;34.40;21.57;;;;;;;;;;5022101;28;20306;-84
2022/12/13 03:28:21;;;;;;;35.03;20.67;;;;;;;;;;5025695;28;20192;-83
2022/12/13 03:30:47;;;;;;;35.63;21.17;;;;;;;;;;5010896;28;20295;-83
2022/12/13 03:33:13;;;;;;;32.37;20.30;;;;;;;;;;5007916;28;20184;-83
2022/12/13 03:35:39;;;;;;;36.27;20.53;;;;;;;;;;5005330;28;20191;-82
2022/12/13 03:38:05;;;;;;;35.77;21.50;;;;;;;;;;5023289;28;20191;-83
2022/12/13 03:40:32;;;;;;;32.03;20.67;;;;;;;;;;5000876;28;20213;-83
2022/12/13 03:42:58;;;;;;;32.95;21.85;;;;;;;;;;5009411;28;20433;-83
2022/12/13 03:45:24;;;;;;;36.03;21.20;;;;;;;;;;5019160;28;20191;-83
2022/12/13 03:47:50;;;;;;;32.90;20.73;;;;;;;;;;5029025;28;20194;-83
2022/12/13 03:50:16;;;;;;;33.27;20.23;;;;;;;;;;5013155;28;20211;-83
2022/12/13 03:52:43;;;;;;;35.67;20.83;;;;;;;;;;5019664;28;20187;-82
2022/12/13 03:55:09;;;;;;;29.80;19.67;;;;;;;;;;5029556;28;20180;-83
2022/12/13 03:57:35;;;;;;;32.80;20.07;;;;;;;;;;5033712;28;20176;-83
2022/12/13 04:00:01;;;;;;;32.90;20.47;;;;;;;;;;5007505;28;20196;-84
2022/12/13 04:02:27;;;;;;;37.77;21.43;;;;;;;;;;5010695;28;20339;-85
2022/12/13 04:04:53;;;;;;;37.63;22.80;;;;;;;;;;5001317;28;20221;-85
2022/12/13 04:07:19;;;;;;;33.20;21.37;;;;;;;;;;5031113;28;20259;-85
2022/12/13 04:09:45;;;;;;;35.33;20.87;;;;;;;;;;5015201;28;20222;-86
2022/12/13 04:14:56;;;;;;;39.90;25.77;;;;;;;;;;5020053;28;20420;-85
2022/12/13 04:17:22;;;;;;;34.70;22.13;;;;;;;;;;5016648;28;20177;-84
2022/12/13 04:19:48;;;;;;;36.37;22.17;;;;;;;;;;5008238;28;20192;-84
2022/12/13 04:22:14;;;;;;;33.40;21.53;;;;;;;;;;5017106;28;20192;-84
2022/12/13 04:24:40;;;;;;;38.63;28.38;;;;;;;;;;5005942;28;20418;-84
2022/12/13 04:27:06;;;;;;;36.27;23.67;;;;;;;;;;4997669;28;20207;-84
2022/12/13 04:29:32;;;;;;;34.77;21.43;;;;;;;;;;5033250;28;20209;-84
2022/12/13 04:31:58;;;;;;;36.97;23.07;;;;;;;;;;5017389;28;20195;-84
2022/12/13 04:34:24;;;;;;;39.65;28.25;;;;;;;;;;4999779;28;20448;-80
2022/12/13 04:36:50;;;;;;;42.08;31.17;;;;;;;;;;5016142;28;20409;-80
2022/12/13 04:39:16;;;;;;;41.22;30.55;;;;;;;;;;4999668;28;20406;-80
2022/12/13 04:41:42;;;;;;;33.90;23.77;;;;;;;;;;5000430;28;20188;-79
2022/12/13 04:44:09;;;;;;;41.77;23.63;;;;;;;;;;5016437;28;20192;-80
2022/12/13 04:46:35;;;;;;;34.83;22.63;;;;;;;;;;5015812;28;20192;-80
2022/12/13 04:49:01;;;;;;;35.70;21.77;;;;;;;;;;4989597;28;20201;-80
2022/12/13 04:51:27;;;;;;;40.22;27.08;;;;;;;;;;4998233;28;20423;-78
2022/12/13 04:53:53;;;;;;;40.92;28.75;;;;;;;;;;4999116;28;20421;-79
2022/12/13 04:56:19;;;;;;;34.77;23.50;;;;;;;;;;5016704;28;20208;-78
2022/12/13 04:58:46;;;;;;;33.40;21.73;;;;;;;;;;5015547;28;20196;-79
2022/12/13 05:01:12;;;;;;;37.23;22.33;;;;;;;;;;5016100;28;20228;-79
2022/12/13 05:03:38;;;;;;;39.75;26.88;;;;;;;;;;5032831;28;20421;-79
2022/12/13 05:06:08;;;;;;;37.08;25.30;;;;;;;;;;5015304;28;20417;-79
2022/12/13 05:08:35;;;;;;;40.58;30.17;;;;;;;;;;5007667;28;20429;-85
2022/12/13 05:11:01;;;;;;;38.00;22.67;;;;;;;;;;5033543;28;20235;-84
2022/12/13 05:13:27;;;;;;;36.20;22.70;;;;;;;;;;5016263;28;20188;-84
2022/12/13 05:15:56;;;;;;;36.00;22.67;;;;;;;;;;5036006;28;20183;-84
2022/12/13 05:18:22;;;;;;;38.90;27.77;;;;;;;;;;5020437;28;20513;-84
2022/12/13 05:20:49;;;;;;;34.83;22.43;;;;;;;;;;5022549;28;20275;-84
2022/12/13 05:23:16;;;;;;;39.10;29.30;;;;;;;;;;5004245;28;20437;-84
2022/12/13 05:25:42;;;;;;;39.57;23.20;;;;;;;;;;5004601;28;20177;-80
2022/12/13 05:28:08;;;;;;;36.93;22.90;;;;;;;;;;5022031;28;20177;-79
2022/12/13 05:30:34;;;;;;;35.43;22.07;;;;;;;;;;5009877;28;20215;-80
2022/12/13 05:33:00;;;;;;;34.00;22.17;;;;;;;;;;5016748;28;20172;-80
2022/12/13 05:35:26;;;;;;;33.13;20.97;;;;;;;;;;5022858;28;20176;-79
2022/12/13 05:37:52;;;;;;;36.47;22.80;;;;;;;;;;5021271;28;20191;-80
2022/12/13 05:40:18;;;;;;;35.23;22.17;;;;;;;;;;5023435;28;20185;-83
2022/12/13 05:42:44;;;;;;;35.47;22.50;;;;;;;;;;5021855;28;20199;-84
2022/12/13 05:45:10;;;;;;;38.10;21.87;;;;;;;;;;5006333;28;20184;-84
2022/12/13 05:47:36;;;;;;;35.97;21.57;;;;;;;;;;5006349;28;20237;-83
2022/12/13 05:50:02;;;;;;;35.93;21.27;;;;;;;;;;5022599;28;20220;-83
2022/12/13 05:52:28;;;;;;;37.57;22.87;;;;;;;;;;5022807;28;20188;-84
2022/12/13 05:54:55;;;;;;;37.47;21.47;;;;;;;;;;5006395;28;20188;-83
2022/12/13 05:57:21;;;;;;;35.17;20.87;;;;;;;;;;5040286;28;20225;-80
2022/12/13 05:59:47;;;;;;;35.70;21.87;;;;;;;;;;5022461;28;20192;-80
2022/12/13 06:02:13;;;;;;;36.72;25.35;;;;;;;;;;5018614;28;20450;-80
2022/12/13 06:04:39;;;;;;;37.63;22.87;;;;;;;;;;5018923;28;20213;-80
2022/12/13 06:07:05;;;;;;;35.77;21.37;;;;;;;;;;5018458;28;20189;-80
2022/12/13 06:09:31;;;;;;;36.63;21.23;;;;;;;;;;4996828;28;20220;-80
2022/12/13 06:11:57;;;;;;;40.73;22.30;;;;;;;;;;5015905;28;20182;-80
2022/12/13 06:14:23;;;;;;;36.93;21.83;;;;;;;;;;5011478;28;20185;-84
2022/12/13 06:16:50;;;;;;;33.33;20.17;;;;;;;;;;5019260;28;20180;-84
2022/12/13 06:19:16;;;;;;;31.57;20.83;;;;;;;;;;4997627;28;20220;-84
2022/12/13 06:21:42;;;;;;;34.33;20.50;;;;;;;;;;5001997;28;20237;-81
2022/12/13 06:24:08;;;;;;;37.97;21.23;;;;;;;;;;5001256;28;20185;-84
2022/12/13 06:26:34;;;;;;;40.65;29.52;;;;;;;;;;5017361;28;20442;-82
2022/12/13 06:29:00;;;;;;;41.57;26.27;;;;;;;;;;4989151;28;20182;-84
2022/12/13 06:31:26;;;;;;;42.40;33.00;;;;;;;;;;5012331;28;20409;-80
2022/12/13 06:33:52;;;;;;;39.63;26.07;;;;;;;;;;5015587;28;20203;-80
2022/12/13 06:36:18;;;;;;;41.77;26.40;;;;;;;;;;4999739;28;20188;-80
2022/12/13 06:38:44;;;;;;;46.40;34.63;;;;;;;;;;5014752;28;20422;-80
2022/12/13 06:41:11;;;;;;;41.60;27.35;;;;;;;;;;5015650;28;20410;-80
2022/12/13 06:43:37;;;;;;;45.13;31.67;;;;;;;;;;5014207;28;20446;-80
2022/12/13 06:46:06;;;;;;;40.60;29.23;;;;;;;;;;4998599;28;20518;-80
2022/12/13 06:48:32;;;;;;;44.25;29.67;;;;;;;;;;4998156;28;20453;-85
2022/12/13 06:51:02;;;;;;;46.47;31.13;;;;;;;;;;5001733;28;20445;-85
2022/12/13 06:53:29;;;;;;;51.92;33.88;;;;;;;;;;5025794;28;20435;-84
2022/12/13 06:55:55;;;;;;;46.00;32.57;;;;;;;;;;5014134;28;20512;-85
2022/12/13 06:58:21;;;;;;;46.75;32.15;;;;;;;;;;4998308;28;20415;-85
2022/12/13 07:00:47;;;;;;;55.33;35.90;;;;;;;;;;4996837;28;20443;-84
2022/12/13 07:03:14;;;;;;;51.67;28.43;;;;;;;;;;4993678;28;20178;-85
2022/12/13 07:05:40;;;;;;;63.90;37.38;;;;;;;;;;5002821;28;20424;-85
2022/12/13 07:08:06;;;;;;;57.50;30.33;;;;;;;;;;4961385;28;20229;-85
2022/12/13 07:10:32;;;;;;;64.65;38.35;;;;;;;;;;4959451;28;20525;-84
2022/12/13 07:12:58;;;;;;;56.55;37.40;;;;;;;;;;4983584;28;20457;-84
2022/12/13 07:15:24;;;;;;;52.92;34.70;;;;;;;;;;4963834;28;20469;-84
2022/12/13 07:17:50;;;;;;;48.87;26.37;;;;;;;;;;4979347;28;20241;-84
2022/12/13 07:20:18;;;;;;;45.53;28.10;;;;;;;;;;4994786;28;20468;-83
2022/12/13 07:22:45;;;;;;;43.07;26.53;;;;;;;;;;4983496;28;20190;-83
2022/12/13 07:25:11;;;;;;;43.50;25.33;;;;;;;;;;4991964;28;20185;-85
2022/12/13 07:27:37;;;;;;;43.38;26.67;;;;;;;;;;4973005;28;20420;-84
2022/12/13 07:32:38;;;;;;;46.60;27.50;;;;;;;;;;4989663;28;20209;-80
2022/12/13 07:35:04;;;;;;;53.53;34.38;;;;;;;;;;4981575;28;20413;-80
2022/12/13 07:37:30;;;;;;;49.22;33.53;;;;;;;;;;4970891;28;20432;-84
2022/12/13 07:39:56;;;;;;;48.75;32.25;;;;;;;;;;4978840;28;20439;-84
2022/12/13 07:42:22;;;;;;;53.13;34.53;;;;;;;;;;4974428;28;20420;-84
2022/12/13 07:44:48;;;;;;;41.87;26.37;;;;;;;;;;4962818;28;20194;-84
2022/12/13 07:47:14;;;;;;;43.93;26.30;;;;;;;;;;4995954;28;20268;-84
2022/12/13 07:49:40;;;;;;;45.50;25.37;;;;;;;;;;4978352;28;20289;-84
2022/12/13 07:52:10;;;;;;;45.60;26.23;;;;;;;;;;4974023;28;20193;-84
2022/12/13 07:54:36;;;;;;;49.67;31.30;;;;;;;;;;4968245;28;20519;-80
2022/12/13 07:57:02;;;;;;;47.27;28.13;;;;;;;;;;4978166;28;20232;-80
2022/12/13 07:59:28;;;;;;;58.47;42.00;;;;;;;;;;4976514;28;20519;-80
2022/12/13 08:01:54;;;;;;;54.10;37.57;;;;;;;;;;4974269;28;20194;-80
2022/12/13 08:04:20;;;;;;;58.47;36.07;;;;;;;;;;4972330;28;20206;-81
2022/12/13 08:06:46;;;;;;;58.23;37.10;;;;;;;;;;4960804;28;20261;-81
2022/12/13 08:09:12;;;;;;;62.15;45.55;;;;;;;;;;4976535;28;20444;-81
2022/12/13 08:11:38;;;;;;;58.70;43.75;;;;;;;;;;4961021;28;20436;-85
2022/12/13 08:14:05;;;;;;;55.03;37.47;;;;;;;;;;4978440;28;20404;-85
2022/12/13 08:16:31;;;;;;;62.97;46.45;;;;;;;;;;4977544;28;20431;-85
2022/12/13 08:18:58;;;;;;;58.38;45.13;;;;;;;;;;4977218;28;20495;-85
2022/12/13 08:21:24;;;;;;;60.55;45.45;;;;;;;;;;4963942;28;20525;-85
2022/12/13 08:23:50;;;;;;;62.90;48.38;;;;;;;;;;4960710;28;20432;-85
2022/12/13 08:26:16;;;;;;;60.78;46.45;;;;;;;;;;4976655;28;20421;-85
2022/12/13 08:28:42;;;;;;;57.80;47.22;;;;;;;;;;4994102;28;20413;-78
2022/12/13 08:31:10;;;;;;;57.15;46.83;;;;;;;;;;4991512;28;20540;-79
2022/12/13 08:33:39;;;;;;;56.53;44.95;;;;;;;;;;4964524;28;20464;-78
2022/12/13 08:36:12;;;;;;;57.17;44.20;;;;;;;;;;4974744;28;20452;-78
2022/12/13 08:38:38;;;;;;;61.65;49.15;;;;;;;;;;4959130;28;20507;-78
2022/12/13 08:41:05;;;;;;;59.00;48.73;;;;;;;;;;4975611;28;20463;-78
2022/12/13 08:43:31;;;;;;;54.93;39.07;;;;;;;;;;4976928;28;20425;-81
2022/12/13 08:45:57;;;;;;;57.10;43.22;;;;;;;;;;4976966;28;20481;-81
2022/12/13 08:48:23;;;;;;;50.50;39.17;;;;;;;;;;4959577;28;20536;-81
2022/12/13 08:50:49;;;;;;;43.50;33.80;;;;;;;;;;4975466;28;20440;-81
2022/12/13 08:53:15;;;;;;;39.97;31.40;;;;;;;;;;4960274;28;20427;-81
2022/12/13 08:55:41;;;;;;;40.58;30.98;;;;;;;;;;4957324;28;20432;-81
2022/12/13 08:58:07;;;;;;;36.53;29.40;;;;;;;;;;4992085;28;20432;-81
2022/12/13 09:00:34;;;;;;;33.10;27.23;;;;;;;;;;4958814;28;20436;-85
2022/12/13 09:03:02;;;;;;;32.50;25.75;;;;;;;;;;4974133;28;20454;-85
2022/12/13 09:05:28;;;;;;;31.85;24.98;;;;;;;;;;4983667;28;20456;-86
2022/12/13 09:07:57;;;;;;;31.25;25.27;;;;;;;;;;4972691;28;20422;-85
2022/12/13 09:10:24;;;;;;;30.67;24.58;;;;;;;;;;4989207;28;20445;-85
2022/12/13 09:12:50;;;;;;;31.02;24.38;;;;;;;;;;4975237;28;20460;-86
2022/12/13 09:15:16;;;;;;;33.07;22.80;;;;;;;;;;4974120;28;20178;-85
2022/12/13 09:17:42;;;;;;;30.70;25.63;;;;;;;;;;4976141;28;20416;-82
2022/12/13 09:20:10;;;;;;;32.80;25.52;;;;;;;;;;4974343;28;20460;-82
2022/12/13 09:22:36;;;;;;;30.25;25.10;;;;;;;;;;4973705;28;20438;-82
2022/12/13 09:25:02;;;;;;;29.50;25.63;;;;;;;;;;4956324;28;20442;-82
2022/12/13 09:27:29;;;;;;;30.83;25.88;;;;;;;;;;4972107;28;20432;-82
2022/12/13 09:29:58;;;;;;;32.10;26.88;;;;;;;;;;4975627;28;20440;-82
2022/12/13 09:32:24;;;;;;;31.17;26.38;;;;;;;;;;4973319;28;20491;-82
2022/12/13 09:34:50;;;;;;;30.75;27.23;;;;;;;;;;4987781;28;20538;-80
2022/12/13 09:37:16;;;;;;;32.30;25.57;;;;;;;;;;4970688;28;20186;-79
2022/12/13 09:39:42;;;;;;;32.10;26.55;;;;;;;;;;4975848;28;20430;-80
2022/12/13 09:42:20;;;;;;;31.05;26.65;;;;;;;;;;4970913;28;20441;-80
2022/12/13 09:44:51;;;;;;;31.65;27.42;;;;;;;;;;4990043;28;20429;-80
2022/12/13 09:47:47;;;;;;;30.50;27.10;;;;;;;;;;4975959;28;20429;-79
2022/12/13 09:50:15;;;;;;;29.60;26.17;;;;;;;;;;4966931;28;20443;-82
2022/12/13 09:52:42;;;;;;;29.83;26.38;;;;;;;;;;4974427;28;20451;-82
2022/12/13 09:55:17;;;;;;;30.55;27.17;;;;;;;;;;4975797;28;20416;-82
2022/12/13 09:57:44;;;;;;;32.90;27.40;;;;;;;;;;4975512;28;20423;-82
2022/12/13 10:00:14;;;;;;;30.15;26.40;;;;;;;;;;4970889;28;20472;-82
2022/12/13 10:02:45;;;;;;;29.27;26.15;;;;;;;;;;4965877;28;20432;-82
2022/12/13 10:05:23;;;;;;;31.13;27.35;;;;;;;;;;4979724;28;20420;-82
2022/12/13 10:07:50;;;;;;;30.33;27.00;;;;;;;;;;4977525;28;20425;-82
2022/12/13 10:10:17;;;;;;;30.63;26.95;;;;;;;;;;4965512;28;20430;-82
2022/12/13 10:12:43;;;;;;;30.40;27.20;;;;;;;;;;4963740;28;20419;-82
2022/12/13 10:15:12;;;;;;;31.15;27.75;;;;;;;;;;4963587;28;20415;-82
2022/12/13 10:17:47;;;;;;;29.30;23.87;;;;;;;;;;4996139;28;20257;-82
2022/12/13 10:20:17;;;;;;;30.17;26.88;;;;;;;;;;4979540;28;20408;-82
2022/12/13 10:22:43;;;;;;;29.88;26.73;;;;;;;;;;4975887;28;20414;-82
2022/12/13 10:25:09;;;;;;;30.05;26.73;;;;;;;;;;4960196;28;20417;-82
2022/12/13 10:27:41;;;;;;;30.17;26.98;;;;;;;;;;4962339;28;20431;-82
2022/12/13 10:30:21;;;;;;;30.63;27.25;;;;;;;;;;4996242;28;20433;-82
2022/12/13 10:32:47;;;;;;;31.25;27.83;;;;;;;;;;4979088;28;20443;-82
2022/12/13 10:35:24;;;;;;;32.65;28.50;;;;;;;;;;4976405;28;20431;-82
2022/12/13 10:37:51;;;;;;;29.27;25.30;;;;;;;;;;4978021;28;20171;-82
2022/12/13 10:40:36;;;;;;;30.07;24.10;;;;;;;;;;4979802;28;20185;-87
2022/12/13 10:43:05;;;;;;;29.83;24.67;;;;;;;;;;4990866;28;20181;-86
2022/12/13 10:45:31;;;;;;;29.20;23.87;;;;;;;;;;4979819;28;20265;-87
2022/12/13 10:47:57;;;;;;;31.65;27.85;;;;;;;;;;4979340;28;20432;-87
2022/12/13 10:50:25;;;;;;;31.23;27.45;;;;;;;;;;4971897;28;20546;-87
2022/12/13 10:52:51;;;;;;;31.25;27.80;;;;;;;;;;4978882;28;20444;-87
2022/12/13 10:55:24;;;;;;;30.42;27.23;;;;;;;;;;4959580;28;20437;-87
2022/12/13 10:57:56;;;;;;;28.67;25.00;;;;;;;;;;4976536;28;20200;-80
2022/12/13 11:00:43;;;;;;;29.52;26.27;;;;;;;;;;4977644;28;20504;-79
2022/12/13 11:03:11;;;;;;;31.17;24.87;;;;;;;;;;4979484;28;20178;-80
2022/12/13 11:05:39;;;;;;;30.17;25.75;;;;;;;;;;4978620;28;20420;-80
2022/12/13 11:08:31;;;;;;;31.30;24.27;;;;;;;;;;4988365;28;20249;-80
2022/12/13 11:11:02;;;;;;;31.83;27.83;;;;;;;;;;4971386;28;20486;-79
2022/12/13 11:13:44;;;;;;;29.33;24.40;;;;;;;;;;4995884;28;20182;-79
2022/12/13 11:16:29;;;;;;;32.60;24.60;;;;;;;;;;4979736;28;20225;-80
2022/12/13 11:18:57;;;;;;;29.90;24.40;;;;;;;;;;4979377;28;20246;-79
2022/12/13 11:21:25;;;;;;;29.40;23.97;;;;;;;;;;4979155;28;20197;-80
2022/12/13 11:23:53;;;;;;;31.33;24.27;;;;;;;;;;4978296;28;20189;-79
2022/12/13 11:26:20;;;;;;;33.03;24.33;;;;;;;;;;4978387;28;20200;-79
2022/12/13 11:28:49;;;;;;;31.30;27.85;;;;;;;;;;4962485;28;20428;-79
2022/12/13 11:31:20;;;;;;;31.90;28.50;;;;;;;;;;4977860;28;20437;-82
2022/12/13 11:33:59;;;;;;;34.97;28.95;;;;;;;;;;4995468;28;20416;-82
2022/12/13 11:36:37;;;;;;;34.83;29.43;;;;;;;;;;4974759;28;20515;-82
2022/12/13 11:39:15;;;;;;;33.85;29.90;;;;;;;;;;4977795;28;20421;-82
2022/12/13 11:41:46;;;;;;;35.85;30.50;;;;;;;;;;4977867;28;20417;-82
2022/12/13 11:44:15;;;;;;;36.28;29.98;;;;;;;;;;4978142;28;20448;-82
2022/12/13 11:46:42;;;;;;;34.65;29.75;;;;;;;;;;4994815;28;20420;-82
2022/12/13 11:49:11;;;;;;;37.22;30.95;;;;;;;;;;4978117;28;20503;-79
2022/12/13 11:51:44;;;;;;;36.05;30.38;;;;;;;;;;4977278;28;20412;-79
2022/12/13 11:54:33;;;;;;;34.47;29.55;;;;;;;;;;4976843;28;20491;-79
2022/12/13 11:57:03;;;;;;;36.08;30.42;;;;;;;;;;4978018;28;20431;-79
2022/12/13 11:59:32;;;;;;;34.55;29.52;;;;;;;;;;4977023;28;20430;-79
2022/12/13 12:02:05;;;;;;;35.78;29.48;;;;;;;;;;4977198;28;20412;-80
2022/12/13 12:04:43;;;;;;;34.97;28.58;;;;;;;;;;4977316;28;20409;-81
2022/12/13 12:07:14;;;;;;;34.80;28.05;;;;;;;;;;4977157;28;20499;-81
2022/12/13 12:09:43;;;;;;;33.90;27.75;;;;;;;;;;4977387;28;20523;-81
2022/12/13 12:12:23;;;;;;;36.17;27.15;;;;;;;;;;4977398;28;20491;-81
2022/12/13 12:14:53;;;;;;;35.85;26.80;;;;;;;;;;4976704;28;20433;-81
2022/12/13 12:17:22;;;;;;;35.42;28.75;;;;;;;;;;4977438;28;20435;-81
2022/12/13 12:19:50;;;;;;;36.90;29.85;;;;;;;;;;4975866;28;20425;-81
2022/12/13 12:22:25;;;;;;;35.15;29.23;;;;;;;;;;4988565;28;20468;-86
2022/12/13 12:25:27;;;;;;;36.28;30.90;;;;;;;;;;4964386;28;20432;-86
2022/12/13 12:27:59;;;;;;;37.45;30.10;;;;;;;;;;4934586;29;20435;-86
2022/12/13 12:30:30;;;;;;;35.35;29.60;;;;;;;;;;4971036;28;20437;-86
2022/12/13 12:32:56;;;;;;;35.90;30.13;;;;;;;;;;4977030;28;20490;-86
2022/12/13 12:35:31;;;;;;;38.75;30.98;;;;;;;;;;4976942;28;20499;-86
2022/12/13 12:38:16;;;;;;;39.35;31.98;;;;;;;;;;4976875;28;20467;-81
2022/12/13 12:41:01;;;;;;;36.93;30.53;;;;;;;;;;4976327;28;20459;-80
2022/12/13 12:43:33;;;;;;;37.65;29.85;;;;;;;;;;4976393;28;20436;-81
2022/12/13 12:46:02;;;;;;;36.40;29.55;;;;;;;;;;4976564;28;20452;-80
2022/12/13 12:48:54;;;;;;;38.55;30.23;;;;;;;;;;4995815;28;20437;-86
2022/12/13 12:51:22;;;;;;;36.13;30.42;;;;;;;;;;4992669;28;20464;-87
2022/12/13 12:54:10;;;;;;;36.50;29.85;;;;;;;;;;4973341;28;20458;-79
2022/12/13 12:56:46;;;;;;;37.60;30.60;;;;;;;;;;4974478;28;20437;-79
2022/12/13 12:59:18;;;;;;;38.27;25.20;;;;;;;;;;4989575;28;20210;-79
2022/12/13 13:01:44;;;;;;;37.33;25.80;;;;;;;;;;4973531;28;20190;-79
2022/12/13 13:04:12;;;;;;;38.10;30.77;;;;;;;;;;4976768;28;20492;-78
2022/12/13 13:06:41;;;;;;;39.83;31.13;;;;;;;;;;4976119;28;20425;-79
2022/12/13 13:09:08;;;;;;;42.25;31.70;;;;;;;;;;4973748;28;20462;-78
2022/12/13 13:11:38;;;;;;;40.83;32.15;;;;;;;;;;4977058;28;20413;-80
2022/12/13 13:14:05;;;;;;;38.47;31.45;;;;;;;;;;4970846;28;20436;-80
2022/12/13 13:16:36;;;;;;;40.88;32.35;;;;;;;;;;4975139;28;20412;-80
2022/12/13 13:19:11;;;;;;;41.13;32.88;;;;;;;;;;4976563;28;20452;-80
2022/12/13 13:21:42;;;;;;;40.50;32.30;;;;;;;;;;4956794;28;20503;-80
2022/12/13 13:24:08;;;;;;;39.45;32.35;;;;;;;;;;4989986;28;20402;-81
2022/12/13 13:26:42;;;;;;;41.28;32.08;;;;;;;;;;4999224;28;20412;-80
2022/12/13 13:29:24;;;;;;;37.40;31.30;;;;;;;;;;4993444;28;20890;-79
2022/12/13 13:32:02;;;;;;;40.83;32.55;;;;;;;;;;5002941;23;20475;-81
2022/12/13 13:34:30;;;;;;;39.42;32.88;;;;;;;;;;4993552;28;20439;-80
2022/12/13 13:36:56;;;;;;;39.60;31.88;;;;;;;;;;4995097;28;20426;-80
2022/12/13 13:39:28;;;;;;;37.77;26.87;;;;;;;;;;4994999;28;20240;-80
2022/12/13 13:42:13;;;;;;;38.43;26.37;;;;;;;;;;4998770;28;20189;-81
2022/12/13 13:44:45;;;;;;;38.57;26.93;;;;;;;;;;5000016;28;20184;-79
2022/12/13 13:47:23;;;;;;;36.63;25.03;;;;;;;;;;5000231;28;20184;-79
2022/12/13 13:50:01;;;;;;;38.27;25.57;;;;;;;;;;5017040;28;20201;-78
2022/12/13 13:52:31;;;;;;;38.20;25.13;;;;;;;;;;4995648;28;20193;-78
2022/12/13 13:55:00;;;;;;;37.10;24.83;;;;;;;;;;5013586;28;20185;-80
2022/12/13 13:57:29;;;;;;;36.07;24.17;;;;;;;;;;4997870;28;20192;-80
2022/12/13 13:59:58;;;;;;;37.60;24.73;;;;;;;;;;5013797;28;20227;-79
2022/12/13 14:02:24;;;;;;;41.33;25.73;;;;;;;;;;4995332;28;20178;-80
2022/12/13 14:04:56;;;;;;;35.00;24.77;;;;;;;;;;4985261;28;20189;-80
2022/12/13 14:07:22;;;;;;;38.23;24.77;;;;;;;;;;4990714;28;20258;-80
2022/12/13 14:09:54;;;;;;;43.60;24.80;;;;;;;;;;4995707;28;20295;-80
2022/12/13 14:12:26;;;;;;;37.27;24.70;;;;;;;;;;5021261;28;20173;-80
2022/12/13 14:15:04;;;;;;;37.57;25.33;;;;;;;;;;4990585;28;20177;-80
2022/12/13 14:17:31;;;;;;;37.80;24.80;;;;;;;;;;4992635;28;20185;-80
2022/12/13 14:20:15;;;;;;;38.80;25.23;;;;;;;;;;4996246;28;20338;-79
2022/12/13 14:22:41;;;;;;;37.87;25.60;;;;;;;;;;4997819;28;20248;-79
2022/12/13 14:25:36;;;;;;;34.93;23.50;;;;;;;;;;4998361;28;20269;-80
2022/12/13 14:28:22;;;;;;;50.67;42.80;;;;;;;;;;5011047;28;20411;-80
2022/12/13 14:30:48;;;;;;;38.93;26.20;;;;;;;;;;4986161;28;20235;-80
2022/12/13 14:33:23;;;;;;;37.97;24.47;;;;;;;;;;4998391;28;20227;-80
2022/12/13 14:35:53;;;;;;;42.53;26.07;;;;;;;;;;4998817;28;20183;-78
2022/12/13 14:38:26;;;;;;;34.93;24.27;;;;;;;;;;4983059;28;20173;-79
2022/12/13 14:41:00;;;;;;;44.20;29.53;;;;;;;;;;4997243;28;20276;-78